Time;durP1;ratioP1;P1;durP2;ratioP2;P2;SDS_P1;SDS_P2;PMS_P1;PMS_P2;Temp;Humidity;BMP_temperature;BMP_pressure;BME280_temperature;BME280_humidity;BME280_pressure;Samples;Min_cycle;Max_cycle;Signal;HPM_P1;HPM_P2
2024/03/07 00:01:07;;;;;;;24.80;12.70;;;;;;;2.20;83.91;99560.34;105541;1255;96759;-76
2024/03/07 00:03:35;;;;;;;25.00;12.70;;;;;;;2.21;83.98;99560.98;105407;1255;110114;-76
2024/03/07 00:06:03;;;;;;;29.60;14.00;;;;;;;2.21;84.24;99560.65;105204;1254;96711;-77
2024/03/07 00:08:31;;;;;;;32.80;13.60;;;;;;;2.20;84.07;99562.06;105548;1253;108149;-77
2024/03/07 00:10:59;;;;;;;28.00;13.60;;;;;;;2.19;84.16;99562.44;105363;1257;96588;-75
2024/03/07 00:13:27;;;;;;;30.20;14.90;;;;;;;2.19;84.23;99558.77;105122;1256;96580;-76
2024/03/07 00:15:55;;;;;;;29.50;14.80;;;;;;;2.18;84.32;99556.70;105467;1256;109867;-77
2024/03/07 00:18:23;;;;;;;31.00;14.80;;;;;;;2.18;84.09;99566.49;105296;1259;96743;-76
2024/03/07 00:20:52;;;;;;;24.80;12.80;;;;;;;2.18;84.15;99561.06;105562;1253;105870;-77
2024/03/07 00:23:20;;;;;;;28.10;13.20;;;;;;;2.19;84.06;99557.71;105443;1256;97070;-76
2024/03/07 00:25:49;;;;;;;32.00;13.90;;;;;;;2.20;84.03;99558.73;105408;1256;96632;-76
2024/03/07 00:28:17;;;;;;;31.20;14.00;;;;;;;2.20;84.17;99555.78;105427;1256;109432;-76
2024/03/07 00:30:45;;;;;;;26.00;13.40;;;;;;;2.20;84.20;99557.67;105435;1255;96962;-77
2024/03/07 00:33:13;;;;;;;28.70;14.00;;;;;;;2.21;84.10;99562.74;105703;1269;108475;-76
2024/03/07 00:35:43;;;;;;;27.50;12.10;;;;;;;2.22;84.44;99561.66;105728;1255;97813;-77
2024/03/07 00:38:11;;;;;;;34.00;15.20;;;;;;;2.23;84.11;99554.45;105711;1253;96623;-77
2024/03/07 00:40:39;;;;;;;28.50;14.30;;;;;;;2.23;84.10;99561.29;105740;1253;109982;-76
2024/03/07 00:43:07;;;;;;;24.80;12.90;;;;;;;2.22;83.97;99563.76;105625;1253;96432;-77
2024/03/07 00:45:35;;;;;;;35.40;14.10;;;;;;;2.22;84.13;99558.50;105619;1256;107299;-77
2024/03/07 00:48:03;;;;;;;31.70;14.30;;;;;;;2.23;84.06;99562.67;105622;1253;96571;-78
2024/03/07 00:50:32;;;;;;;26.40;13.30;;;;;;;2.24;84.06;99561.08;105800;1254;96619;-76
2024/03/07 00:53:00;;;;;;;36.60;16.30;;;;;;;2.26;84.01;99562.41;105887;1255;110015;-76
2024/03/07 00:55:28;;;;;;;31.50;13.70;;;;;;;2.27;84.27;99561.67;105389;1255;96615;-77
2024/03/07 00:57:56;;;;;;;32.00;14.30;;;;;;;2.27;84.37;99561.16;105452;1256;108260;-76
2024/03/07 01:00:23;;;;;;;36.40;17.10;;;;;;;2.27;84.10;99559.75;105152;1260;96714;-77
2024/03/07 01:02:53;;;;;;;31.60;14.20;;;;;;;2.29;83.88;99562.66;105158;1258;96607;-77
2024/03/07 01:05:21;;;;;;;29.50;14.90;;;;;;;2.30;84.04;99565.28;105474;1256;109727;-77
2024/03/07 01:07:50;;;;;;;30.80;15.60;;;;;;;2.30;83.95;99563.88;105534;1255;97798;-77
2024/03/07 01:10:18;;;;;;;32.80;15.80;;;;;;;2.29;84.22;99562.66;105476;1252;105405;-76
2024/03/07 01:12:46;;;;;;;31.00;16.40;;;;;;;2.30;83.98;99560.89;105374;1256;96597;-80
2024/03/07 01:15:14;;;;;;;42.10;17.80;;;;;;;2.30;84.04;99564.20;105391;1255;96584;-76
2024/03/07 01:17:44;;;;;;;38.00;16.00;;;;;;;2.29;84.16;99563.52;105566;1255;109436;-77
2024/03/07 01:20:13;;;;;;;36.20;17.60;;;;;;;2.29;84.01;99562.86;105433;1256;97411;-75
2024/03/07 01:22:41;;;;;;;35.00;17.00;;;;;;;2.28;83.96;99560.77;105197;1258;107578;-77
2024/03/07 01:25:08;;;;;;;35.80;16.20;;;;;;;2.28;83.94;99567.27;105647;1254;97899;-76
2024/03/07 01:27:36;;;;;;;36.90;17.50;;;;;;;2.27;83.98;99565.52;105741;1256;96676;-77
2024/03/07 01:30:07;;;;;;;39.10;17.10;;;;;;;2.27;83.76;99571.11;105642;1255;109930;-77
2024/03/07 01:32:36;;;;;;;39.60;17.20;;;;;;;2.27;83.97;99567.64;105518;1256;96625;-75
2024/03/07 01:35:07;;;;;;;39.40;18.10;;;;;;;2.24;83.94;99569.66;105532;1267;107711;-76
2024/03/07 01:37:35;;;;;;;36.50;17.00;;;;;;;2.21;83.97;99569.21;105656;1255;96592;-77
2024/03/07 01:40:05;;;;;;;39.40;18.50;;;;;;;2.21;83.91;99570.10;105147;1253;96565;-77
2024/03/07 01:42:33;;;;;;;42.50;18.00;;;;;;;2.19;84.01;99571.39;105233;1258;109452;-76
2024/03/07 01:45:01;;;;;;;39.00;17.90;;;;;;;2.19;84.27;99572.96;105475;1266;96587;-77
2024/03/07 01:47:29;;;;;;;41.20;18.90;;;;;;;2.17;83.89;99568.11;105685;1256;107342;-76
2024/03/07 01:49:59;;;;;;;39.60;18.10;;;;;;;2.14;83.85;99569.42;105669;1256;97912;-77
2024/03/07 01:52:27;;;;;;;41.60;17.30;;;;;;;2.13;84.03;99571.02;105666;1256;96629;-76
2024/03/07 01:54:55;;;;;;;45.00;20.50;;;;;;;2.12;83.63;99569.66;105588;1253;107981;-76
2024/03/07 01:57:23;;;;;;;44.60;19.90;;;;;;;2.12;84.09;99570.52;105212;1256;96704;-77
2024/03/07 01:59:51;;;;;;;37.30;18.10;;;;;;;2.11;83.68;99571.94;105392;1257;106765;-76
2024/03/07 02:02:19;;;;;;;46.30;19.00;;;;;;;2.10;84.03;99574.96;105507;1256;97896;-77
2024/03/07 02:04:47;;;;;;;41.50;18.80;;;;;;;2.09;84.00;99573.59;105590;1255;97800;-76
2024/03/07 02:07:15;;;;;;;41.90;18.80;;;;;;;2.08;83.71;99575.55;105634;1255;109022;-76
2024/03/07 02:09:43;;;;;;;42.60;19.30;;;;;;;2.09;83.98;99575.69;108650;1253;95979;-75
2024/03/07 02:12:11;;;;;;;37.30;18.60;;;;;;;2.08;83.84;99575.17;105360;1256;106271;-76
2024/03/07 02:14:39;;;;;;;41.20;19.40;;;;;;;2.05;83.71;99578.95;105541;1254;97510;-77
2024/03/07 02:17:07;;;;;;;42.30;18.50;;;;;;;2.04;83.99;99571.65;105199;1255;97094;-77
2024/03/07 02:19:35;;;;;;;42.20;20.30;;;;;;;2.03;83.85;99570.64;105557;1255;110262;-75
2024/03/07 02:22:03;;;;;;;45.10;20.50;;;;;;;2.01;84.00;99571.72;105385;1256;96579;-76
2024/03/07 02:24:31;;;;;;;42.80;20.30;;;;;;;2.03;83.49;99566.95;105179;1256;108178;-77
2024/03/07 02:26:59;;;;;;;42.20;19.20;;;;;;;2.05;83.85;99571.42;105270;1263;96672;-77
2024/03/07 02:29:27;;;;;;;32.90;15.00;;;;;;;2.04;83.86;99568.13;105290;1266;96607;-76
2024/03/07 02:31:56;;;;;;;48.10;20.00;;;;;;;2.00;83.55;99570.02;105206;1259;109096;-76
2024/03/07 02:34:26;;;;;;;35.60;16.90;;;;;;;1.98;83.85;99563.77;105544;1255;96587;-76
2024/03/07 02:36:55;;;;;;;42.30;19.30;;;;;;;1.97;83.65;99563.81;105194;1268;106515;-77
2024/03/07 02:39:24;;;;;;;48.30;20.70;;;;;;;1.97;83.78;99562.77;105410;1266;96623;-77
2024/03/07 02:41:53;;;;;;;43.90;19.50;;;;;;;1.97;83.81;99566.61;105430;1256;97911;-77
2024/03/07 02:44:21;;;;;;;43.60;18.90;;;;;;;1.95;83.76;99565.42;105504;1256;109977;-76
2024/03/07 02:46:49;;;;;;;49.80;22.00;;;;;;;1.93;83.21;99566.88;105470;1263;97533;-77
2024/03/07 02:49:17;;;;;;;40.40;18.80;;;;;;;1.91;83.48;99568.69;105536;1255;107645;-77
2024/03/07 02:51:45;;;;;;;46.80;20.20;;;;;;;1.89;83.64;99567.00;105541;1256;96613;-76
2024/03/07 02:54:13;;;;;;;47.80;20.20;;;;;;;1.90;83.64;99566.63;105420;1258;96508;-77
2024/03/07 02:56:41;;;;;;;46.20;21.80;;;;;;;1.90;83.41;99568.03;105471;1252;109471;-76
2024/03/07 02:59:09;;;;;;;46.80;21.00;;;;;;;1.88;83.72;99567.53;105335;1266;97520;-77
2024/03/07 03:01:37;;;;;;;43.20;19.90;;;;;;;1.87;83.77;99567.41;105320;1268;107708;-77
2024/03/07 03:04:05;;;;;;;41.00;19.70;;;;;;;1.84;83.17;99569.24;105668;1257;97598;-77
2024/03/07 03:06:33;;;;;;;51.60;20.80;;;;;;;1.83;83.35;99569.80;105619;1256;96518;-78
2024/03/07 03:09:00;;;;;;;51.10;22.90;;;;;;;1.82;83.37;99570.19;105303;1257;108337;-77
2024/03/07 03:11:29;;;;;;;44.80;19.40;;;;;;;1.80;83.12;99570.60;105707;1256;96662;-77
2024/03/07 03:13:57;;;;;;;45.00;20.00;;;;;;;1.77;83.29;99574.16;105529;1259;107117;-77
2024/03/07 03:16:25;;;;;;;49.40;21.00;;;;;;;1.77;83.32;99572.93;105414;1259;96668;-76
2024/03/07 03:19:13;;;;;;;49.60;23.10;;;;;;;1.77;83.36;99576.78;105240;1257;96681;-76
2024/03/07 03:21:42;;;;;;;51.70;21.20;;;;;;;1.76;83.22;99579.45;105516;1256;109327;-77
2024/03/07 03:24:10;;;;;;;43.70;20.40;;;;;;;1.74;83.54;99582.13;105640;1257;96595;-76
2024/03/07 03:26:42;;;;;;;45.80;19.30;;;;;;;1.72;83.10;99580.79;105296;1255;105912;-78
2024/03/07 03:29:11;;;;;;;48.80;20.70;;;;;;;1.72;83.20;99582.70;105476;1255;96605;-77
2024/03/07 03:31:40;;;;;;;48.60;18.90;;;;;;;1.73;83.22;99584.08;105397;1264;96504;-77
2024/03/07 03:34:09;;;;;;;44.50;20.60;;;;;;;1.73;83.18;99584.59;105457;1256;109456;-77
2024/03/07 03:36:38;;;;;;;47.90;21.20;;;;;;;1.72;82.95;99584.63;105183;1267;96605;-76
2024/03/07 03:39:06;;;;;;;49.40;22.40;;;;;;;1.70;82.99;99587.80;105412;1257;108008;-76
2024/03/07 03:41:35;;;;;;;52.60;21.20;;;;;;;1.71;83.25;99590.42;105417;1256;96632;-76
2024/03/07 03:44:03;;;;;;;40.20;18.20;;;;;;;1.70;83.17;99592.73;105355;1257;97226;-75
2024/03/07 03:46:31;;;;;;;40.80;17.80;;;;;;;1.68;83.14;99590.33;105367;1259;109437;-77
2024/03/07 03:49:00;;;;;;;43.30;19.00;;;;;;;1.66;83.26;99589.85;105602;1256;96599;-76
2024/03/07 03:51:28;;;;;;;41.40;19.10;;;;;;;1.65;83.41;99589.52;105730;1260;107670;-77
2024/03/07 03:53:55;;;;;;;46.20;18.90;;;;;;;1.64;83.11;99589.03;105633;1264;97532;-76
2024/03/07 03:56:24;;;;;;;49.80;20.80;;;;;;;1.63;83.09;99589.57;105698;1255;96564;-76
2024/03/07 03:58:53;;;;;;;41.00;18.70;;;;;;;1.61;83.18;99588.95;105768;1257;109961;-76
2024/03/07 04:01:21;;;;;;;46.80;19.90;;;;;;;1.60;83.07;99586.70;105454;1257;98102;-77
2024/03/07 04:03:49;;;;;;;44.90;20.20;;;;;;;1.61;82.85;99589.11;105528;1257;107769;-76
2024/03/07 04:06:18;;;;;;;29.00;13.80;;;;;;;1.61;83.11;99589.65;105461;1254;96594;-76
2024/03/07 04:08:46;;;;;;;40.60;18.30;;;;;;;1.59;82.90;99590.59;105817;1257;96674;-75
2024/03/07 04:11:13;;;;;;;46.80;18.10;;;;;;;1.56;83.09;99592.56;105583;1266;109889;-77
2024/03/07 04:13:42;;;;;;;43.70;19.80;;;;;;;1.56;83.10;99598.02;105771;1255;96550;-77
2024/03/07 04:16:09;;;;;;;41.50;16.20;;;;;;;1.55;83.09;99597.84;105742;1268;107621;-77
2024/03/07 04:18:39;;;;;;;45.80;19.90;;;;;;;1.54;83.11;99600.67;105185;1256;96665;-76
2024/03/07 04:21:09;;;;;;;40.30;19.00;;;;;;;1.54;83.21;99599.79;105589;1256;96585;-77
2024/03/07 04:23:40;;;;;;;44.00;18.20;;;;;;;1.55;83.04;99598.37;105604;1256;109896;-77
2024/03/07 04:26:08;;;;;;;38.80;18.40;;;;;;;1.54;82.80;99599.98;105349;1258;98001;-77
2024/03/07 04:28:36;;;;;;;36.80;16.10;;;;;;;1.50;82.87;99603.56;105827;1256;106767;-77
2024/03/07 04:31:04;;;;;;;43.10;19.00;;;;;;;1.51;82.85;99602.66;105734;1256;96534;-76
2024/03/07 04:33:32;;;;;;;38.00;18.00;;;;;;;1.50;83.18;99602.69;105517;1258;96603;-76
2024/03/07 04:36:02;;;;;;;42.80;19.80;;;;;;;1.49;82.84;99605.34;105750;1254;109884;-77
2024/03/07 04:38:31;;;;;;;43.80;19.00;;;;;;;1.49;82.94;99604.48;105662;1256;97528;-77
2024/03/07 04:40:59;;;;;;;38.90;15.60;;;;;;;1.47;82.65;99610.28;105552;1256;107631;-77
2024/03/07 04:43:27;;;;;;;42.10;17.80;;;;;;;1.44;82.70;99609.83;105234;1254;96691;-75
2024/03/07 04:45:55;;;;;;;34.10;14.00;;;;;;;1.42;82.66;99611.67;105571;1266;96578;-77
2024/03/07 04:48:23;;;;;;;34.60;17.40;;;;;;;1.42;82.87;99613.59;105524;1256;108053;-75
2024/03/07 04:50:51;;;;;;;41.60;16.60;;;;;;;1.43;83.01;99610.23;105800;1265;96593;-76
2024/03/07 04:53:19;;;;;;;37.10;17.60;;;;;;;1.41;82.76;99613.60;105317;1254;108928;-77
2024/03/07 04:55:47;;;;;;;40.30;17.70;;;;;;;1.41;82.54;99615.16;105684;1264;96528;-77
2024/03/07 04:58:15;;;;;;;33.80;15.90;;;;;;;1.42;82.77;99614.98;105554;1255;96585;-76
2024/03/07 05:00:43;;;;;;;39.30;18.10;;;;;;;1.42;82.56;99617.42;105416;1266;109953;-72
2024/03/07 05:03:11;;;;;;;45.30;18.50;;;;;;;1.42;82.74;99615.67;105660;1256;96536;-73
2024/03/07 05:05:40;;;;;;;36.50;15.20;;;;;;;1.43;82.65;99616.52;105615;1257;107261;-73
2024/03/07 05:08:10;;;;;;;38.20;16.90;;;;;;;1.43;82.71;99622.27;105341;1266;96722;-73
2024/03/07 05:10:38;;;;;;;35.40;15.50;;;;;;;1.43;82.49;99623.52;105714;1257;96636;-74
2024/03/07 05:13:06;;;;;;;37.50;16.50;;;;;;;1.43;82.76;99626.48;105684;1253;110199;-73
2024/03/07 05:15:34;;;;;;;43.80;16.80;;;;;;;1.43;82.52;99627.01;105472;1267;96521;-74
2024/03/07 05:18:06;;;;;;;35.40;16.00;;;;;;;1.43;82.46;99628.21;105468;1257;107692;-72
2024/03/07 05:20:34;;;;;;;42.30;17.10;;;;;;;1.42;82.41;99631.04;105748;1256;97512;-72
2024/03/07 05:23:05;;;;;;;39.30;17.70;;;;;;;1.41;82.75;99632.67;105497;1257;97913;-71
2024/03/07 05:25:33;;;;;;;41.00;15.20;;;;;;;1.39;82.40;99637.43;105675;1254;109050;-71
2024/03/07 05:28:02;;;;;;;41.80;16.40;;;;;;;1.37;82.45;99639.73;105741;1257;96644;-74
2024/03/07 05:30:32;;;;;;;35.40;16.60;;;;;;;1.39;82.51;99637.06;105666;1257;107136;-71
2024/03/07 05:33:01;;;;;;;32.50;11.90;;;;;;;1.40;82.75;99643.36;105567;1257;96810;-72
2024/03/07 05:35:30;;;;;;;34.20;15.50;;;;;;;1.40;82.44;99644.73;108660;1254;94533;-73
2024/03/07 05:38:01;;;;;;;36.20;15.60;;;;;;;1.41;82.02;99644.00;107428;1254;109702;-71
2024/03/07 05:40:29;;;;;;;35.20;16.00;;;;;;;1.44;82.39;99649.01;105402;1257;96657;-71
2024/03/07 05:42:57;;;;;;;30.90;13.80;;;;;;;1.44;82.37;99648.66;108602;1252;107610;-72
2024/03/07 05:45:25;;;;;;;40.80;16.00;;;;;;;1.42;82.39;99652.04;108695;1254;94282;-71
2024/03/07 05:47:53;;;;;;;29.70;14.60;;;;;;;1.41;82.36;99652.57;105583;1256;96533;-71
2024/03/07 05:50:21;;;;;;;39.80;17.20;;;;;;;1.43;82.27;99653.93;105506;1254;110013;-76
2024/03/07 05:52:49;;;;;;;32.00;16.20;;;;;;;1.44;82.56;99655.62;105444;1255;96504;-70
2024/03/07 05:55:19;;;;;;;39.50;17.50;;;;;;;1.45;82.46;99655.24;105426;1258;107919;-71
2024/03/07 05:57:47;;;;;;;39.30;15.10;;;;;;;1.44;82.35;99659.32;105427;1257;97532;-71
2024/03/07 06:00:15;;;;;;;39.30;16.70;;;;;;;1.43;82.29;99661.98;105669;1254;96517;-73
2024/03/07 06:02:43;;;;;;;34.30;16.20;;;;;;;1.43;82.25;99664.05;105799;1256;108970;-71
2024/03/07 06:05:15;;;;;;;37.60;16.90;;;;;;;1.40;82.11;99659.60;105536;1257;96510;-71
2024/03/07 06:07:47;;;;;;;;;;;;;;;1.39;81.87;99660.31;105688;1252;107606;-70
2024/03/07 06:10:16;;;;;;;38.00;16.50;;;;;;;1.37;82.43;99662.45;106335;1252;97519;-71
2024/03/07 06:12:45;;;;;;;34.90;14.20;;;;;;;1.36;82.26;99663.18;105303;1256;96600;-71
2024/03/07 06:15:17;;;;;;;33.80;14.90;;;;;;;1.36;82.27;99667.22;105369;1254;109905;-72
2024/03/07 06:17:46;;;;;;;37.90;16.40;;;;;;;1.34;82.23;99667.42;105506;1252;97821;-71
2024/03/07 06:20:22;;;;;;;32.70;13.80;;;;;;;1.32;82.40;99670.96;105559;1266;107685;-71
2024/03/07 06:22:54;;;;;;;40.60;16.80;;;;;;;1.31;82.14;99669.25;105396;1257;96610;-71
2024/03/07 06:25:36;;;;;;;36.70;16.00;;;;;;;1.30;82.13;99672.77;105473;1254;97417;-75
2024/03/07 06:28:09;;;;;;;35.60;15.10;;;;;;;1.27;82.30;99674.94;105752;1257;109862;-81
2024/03/07 06:30:39;;;;;;;;;;;;;;;1.24;81.94;99676.76;105564;1254;96549;-71
2024/03/07 06:33:07;;;;;;;33.90;15.80;;;;;;;1.21;82.22;99676.48;105522;1251;107176;-71
2024/03/07 06:35:38;;;;;;;38.90;14.20;;;;;;;1.22;81.85;99683.09;105447;1256;96611;-71
2024/03/07 06:38:10;;;;;;;39.80;17.50;;;;;;;1.22;82.05;99681.36;105574;1257;97898;-70
2024/03/07 06:40:42;;;;;;;34.90;15.60;;;;;;;1.24;82.43;99683.05;105599;1257;111073;-72
2024/03/07 06:43:11;;;;;;;35.50;16.50;;;;;;;1.25;82.03;99686.18;105452;1257;96588;-73
2024/03/07 06:45:39;;;;;;;31.30;13.80;;;;;;;1.25;82.10;99689.67;105453;1256;107983;-71
2024/03/07 06:48:08;;;;;;;34.30;14.60;;;;;;;1.21;82.00;99690.29;105503;1258;96642;-70
2024/03/07 06:50:37;;;;;;;33.10;15.50;;;;;;;1.18;81.91;99691.58;105627;1253;96590;-75
2024/03/07 06:53:06;;;;;;;30.00;14.10;;;;;;;1.20;82.19;99691.36;105645;1255;109884;-78
2024/03/07 06:55:36;;;;;;;29.30;14.60;;;;;;;1.20;82.05;99693.64;105475;1265;96648;-71
2024/03/07 06:58:07;;;;;;;28.60;14.10;;;;;;;1.18;82.00;99695.44;105459;1256;108114;-71
2024/03/07 07:00:35;;;;;;;34.20;16.30;;;;;;;1.18;82.38;99697.52;105234;1257;96648;-70
2024/03/07 07:03:06;;;;;;;32.70;14.50;;;;;;;1.19;82.19;99701.32;105529;1257;97547;-70
2024/03/07 07:05:35;;;;;;;27.30;14.10;;;;;;;1.21;82.18;99704.97;105614;1255;110531;-71
2024/03/07 07:08:04;;;;;;;34.50;16.20;;;;;;;1.21;82.30;99703.58;105617;1255;96613;-71
2024/03/07 07:10:33;;;;;;;30.90;15.10;;;;;;;1.21;81.94;99705.83;105464;1275;108237;-76
2024/03/07 07:13:01;;;;;;;25.60;12.40;;;;;;;1.23;82.12;99705.98;105383;1267;96607;-70
2024/03/07 07:15:28;;;;;;;31.90;15.00;;;;;;;1.22;81.98;99707.21;105216;1257;97548;-71
2024/03/07 07:17:56;;;;;;;33.60;14.40;;;;;;;1.18;82.05;99707.83;105473;1253;109885;-70
2024/03/07 07:20:25;;;;;;;30.60;15.90;;;;;;;1.18;81.90;99711.86;105651;1255;97404;-70
2024/03/07 07:22:53;;;;;;;31.20;15.10;;;;;;;1.18;82.22;99719.88;105478;1253;107319;-71
2024/03/07 07:25:21;;;;;;;26.10;13.80;;;;;;;1.17;82.06;99716.76;98655;1257;9312516;-75
2024/03/07 07:27:51;;;;;;;28.10;12.30;;;;;;;1.15;81.82;99720.30;105459;1255;109942;-74
2024/03/07 07:30:22;;;;;;;30.80;15.10;;;;;;;1.15;81.80;99720.66;105404;1268;96585;-74
2024/03/07 07:32:52;;;;;;;28.10;13.90;;;;;;;1.16;81.87;99727.79;105526;1266;107628;-71
2024/03/07 07:35:20;;;;;;;25.90;12.40;;;;;;;1.18;81.89;99729.33;105484;1256;97423;-72
2024/03/07 07:37:53;;;;;;;27.80;14.60;;;;;;;1.17;81.82;99727.76;105169;1257;97673;-71
2024/03/07 07:40:23;;;;;;;30.10;14.00;;;;;;;1.19;81.82;99732.11;105335;1254;110088;-75
2024/03/07 07:42:52;;;;;;;26.40;14.60;;;;;;;1.17;82.01;99736.50;105460;1255;97810;-74
2024/03/07 07:45:22;;;;;;;22.40;11.90;;;;;;;1.15;81.92;99733.22;105571;1254;105463;-81
2024/03/07 07:47:51;;;;;;;31.70;14.60;;;;;;;1.15;81.76;99732.02;105387;1255;96677;-73
2024/03/07 07:50:21;;;;;;;29.20;14.40;;;;;;;1.15;81.66;99733.74;105360;1253;96639;-73
2024/03/07 07:52:53;;;;;;;28.00;13.60;;;;;;;1.15;81.53;99738.65;105285;1256;108658;-70
2024/03/07 07:55:23;;;;;;;29.30;14.00;;;;;;;1.16;81.76;99735.83;105420;1257;97655;-75
2024/03/07 07:57:53;;;;;;;19.30;11.30;;;;;;;1.17;81.65;99738.59;105558;1256;107414;-71
2024/03/07 08:00:28;;;;;;;26.80;13.50;;;;;;;1.17;81.60;99738.23;105265;1255;96588;-72
2024/03/07 08:03:00;;;;;;;29.50;14.00;;;;;;;1.16;81.61;99741.77;105541;1255;96579;-70
2024/03/07 08:05:32;;;;;;;29.50;14.20;;;;;;;1.16;81.36;99744.73;105478;1253;109527;-70
2024/03/07 08:08:04;;;;;;;26.40;12.00;;;;;;;1.19;81.68;99745.72;105460;1257;96714;-71
2024/03/07 08:10:35;;;;;;;25.70;13.50;;;;;;;1.17;81.48;99744.89;105339;1256;107634;-71
2024/03/07 08:13:05;;;;;;;24.50;12.60;;;;;;;1.16;81.54;99747.70;105262;1256;96673;-71
2024/03/07 08:15:34;;;;;;;24.70;13.00;;;;;;;1.17;81.46;99749.77;105577;1256;96642;-71
2024/03/07 08:18:08;;;;;;;28.80;12.90;;;;;;;1.19;81.71;99751.14;105512;1257;109644;-72
2024/03/07 08:20:38;;;;;;;25.40;14.80;;;;;;;1.21;81.46;99750.92;105351;1256;96696;-71
2024/03/07 08:23:08;;;;;;;19.80;10.00;;;;;;;1.23;81.49;99752.09;105567;1256;107447;-70
2024/03/07 08:25:39;;;;;;;22.90;12.00;;;;;;;1.24;81.58;99754.16;105517;1254;96598;-71
2024/03/07 08:28:08;;;;;;;33.60;15.10;;;;;;;1.24;81.32;99753.64;105487;1252;96593;-71
2024/03/07 08:30:35;;;;;;;28.10;13.60;;;;;;;1.22;81.43;99750.19;105550;1254;110005;-71
2024/03/07 08:33:05;;;;;;;26.90;13.70;;;;;;;1.23;81.35;99754.37;105347;1257;97799;-71
2024/03/07 08:35:34;;;;;;;27.20;12.70;;;;;;;1.26;81.37;99752.72;105680;1258;107784;-78
2024/03/07 08:38:03;;;;;;;26.80;13.00;;;;;;;1.28;81.47;99757.20;105682;1257;96582;-75
2024/03/07 08:40:32;;;;;;;17.80;9.80;;;;;;;1.29;81.31;99754.92;105639;1257;96584;-70
2024/03/07 08:43:02;;;;;;;29.30;13.80;;;;;;;1.28;80.93;99755.27;105561;1253;109830;-71
2024/03/07 08:45:33;;;;;;;25.80;12.20;;;;;;;1.25;81.02;99755.52;105460;1257;96598;-71
2024/03/07 08:48:08;;;;;;;25.90;12.90;;;;;;;1.25;81.21;99753.08;105407;1253;107073;-71
2024/03/07 08:50:37;;;;;;;29.20;13.90;;;;;;;1.29;80.88;99755.09;105696;1257;96682;-70
2024/03/07 08:53:07;;;;;;;27.30;13.60;;;;;;;1.34;81.02;99754.81;105489;1253;96610;-70
2024/03/07 08:55:36;;;;;;;20.90;12.20;;;;;;;1.35;81.17;99759.48;105354;1253;109909;-71
2024/03/07 08:58:06;;;;;;;21.50;10.20;;;;;;;1.36;80.99;99760.52;105713;1252;96573;-82
2024/03/07 09:00:35;;;;;;;32.70;13.90;;;;;;;1.39;80.84;99761.33;105568;1255;107577;-80
2024/03/07 09:03:09;;;;;;;21.50;12.00;;;;;;;1.42;81.15;99763.88;105427;1256;96593;-71
2024/03/07 09:05:40;;;;;;;23.20;12.90;;;;;;;1.45;81.02;99763.09;105397;1257;96555;-72
2024/03/07 09:08:09;;;;;;;28.40;13.50;;;;;;;1.45;80.81;99765.21;105581;1252;109851;-71
2024/03/07 09:10:41;;;;;;;27.10;11.40;;;;;;;1.44;80.56;99767.66;105660;1253;96613;-70
2024/03/07 09:13:10;;;;;;;26.10;10.80;;;;;;;1.44;80.46;99770.10;105510;1255;107631;-72
2024/03/07 09:15:38;;;;;;;26.70;13.30;;;;;;;1.43;80.49;99767.52;105471;1255;97786;-71
2024/03/07 09:18:06;;;;;;;28.30;13.80;;;;;;;1.47;80.66;99765.14;105487;1265;96545;-71
2024/03/07 09:20:34;;;;;;;27.50;14.30;;;;;;;1.52;80.59;99767.30;105501;1253;109342;-77
2024/03/07 09:23:03;;;;;;;26.00;12.70;;;;;;;1.54;80.48;99769.20;105397;1252;96594;-76
2024/03/07 09:25:34;;;;;;;24.10;11.20;;;;;;;1.55;80.36;99767.95;105524;1254;105406;-70
2024/03/07 09:28:02;;;;;;;24.20;11.30;;;;;;;1.57;80.44;99766.49;105522;1256;96579;-71
2024/03/07 09:30:30;;;;;;;24.30;12.10;;;;;;;1.59;80.52;99766.43;105435;1257;96575;-71
2024/03/07 09:32:59;;;;;;;17.90;9.50;;;;;;;1.68;80.83;99771.64;105517;1255;107773;-71
2024/03/07 09:35:27;;;;;;;25.30;13.10;;;;;;;1.73;80.44;99775.71;105396;1256;96671;-70
2024/03/07 09:37:56;;;;;;;29.20;13.30;;;;;;;1.74;80.35;99779.54;105424;1256;106236;-71
2024/03/07 09:40:25;;;;;;;25.20;13.60;;;;;;;1.77;80.31;99773.70;105545;1256;96594;-71
2024/03/07 09:42:57;;;;;;;27.00;12.10;;;;;;;1.82;80.09;99774.79;105442;1255;96596;-70
2024/03/07 09:45:29;;;;;;;22.90;11.90;;;;;;;1.86;80.14;99775.02;105483;1255;109937;-71
2024/03/07 09:47:57;;;;;;;24.90;11.80;;;;;;;1.91;80.31;99775.08;105598;1255;96537;-71
2024/03/07 09:50:29;;;;;;;27.90;13.40;;;;;;;1.99;80.37;99772.61;105379;1257;107613;-72
2024/03/07 09:53:00;;;;;;;23.80;12.20;;;;;;;2.08;80.19;99775.33;105526;1252;96640;-71
2024/03/07 09:55:29;;;;;;;21.70;12.60;;;;;;;2.13;80.28;99778.88;105599;1255;96680;-71
2024/03/07 09:58:00;;;;;;;23.30;13.30;;;;;;;2.17;79.83;99777.91;105725;1255;108632;-72
2024/03/07 10:00:29;;;;;;;22.50;12.10;;;;;;;2.22;79.69;99778.98;105662;1256;96648;-71
2024/03/07 10:03:00;;;;;;;19.00;10.70;;;;;;;2.29;79.89;99781.77;105547;1267;105866;-71
2024/03/07 10:05:30;;;;;;;24.90;13.00;;;;;;;2.35;79.69;99782.17;105535;1255;96615;-79
2024/03/07 10:08:00;;;;;;;25.20;11.30;;;;;;;2.37;79.77;99780.70;105449;1253;96520;-71
2024/03/07 10:10:30;;;;;;;22.90;10.70;;;;;;;2.42;79.56;99786.34;105599;1252;109889;-75
2024/03/07 10:12:59;;;;;;;24.70;12.10;;;;;;;2.47;79.63;99783.23;105799;1255;96566;-73
2024/03/07 10:15:33;;;;;;;22.70;12.30;;;;;;;2.48;79.66;99781.09;105696;1256;106195;-72
2024/03/07 10:18:02;;;;;;;21.50;11.10;;;;;;;2.52;79.59;99778.54;105531;1253;96582;-71
2024/03/07 10:20:30;;;;;;;25.10;11.80;;;;;;;2.58;79.47;99775.75;105493;1256;96668;-71
2024/03/07 10:22:59;;;;;;;22.80;12.40;;;;;;;2.66;79.50;99776.22;105352;1255;110150;-69
2024/03/07 10:25:27;;;;;;;22.90;12.70;;;;;;;2.75;79.62;99775.61;105441;1257;96626;-70
2024/03/07 10:27:57;;;;;;;21.00;10.90;;;;;;;2.77;79.45;99775.91;105469;1256;109411;-71
2024/03/07 10:30:27;;;;;;;24.40;12.10;;;;;;;2.74;79.16;99774.59;105443;1256;96597;-80
2024/03/07 10:32:58;;;;;;;23.50;10.70;;;;;;;2.73;78.99;99776.17;105497;1253;96588;-70
2024/03/07 10:35:30;;;;;;;24.30;11.60;;;;;;;2.77;79.11;99779.41;105418;1256;109404;-77
2024/03/07 10:38:00;;;;;;;17.40;10.40;;;;;;;2.80;79.18;99776.34;105338;1256;97016;-71
2024/03/07 10:40:30;;;;;;;20.60;10.60;;;;;;;2.85;79.20;99783.71;105373;1257;107750;-70
2024/03/07 10:43:02;;;;;;;22.20;10.60;;;;;;;2.87;79.04;99782.60;105350;1252;96591;-71
2024/03/07 10:45:35;;;;;;;19.90;10.70;;;;;;;2.91;78.93;99775.66;105363;1255;97969;-69
2024/03/07 10:48:11;;;;;;;25.90;11.50;;;;;;;2.98;79.04;99782.45;105326;1268;109479;-70
2024/03/07 10:50:57;;;;;;;21.90;11.80;;;;;;;3.08;79.33;99776.54;105357;1253;96994;-71
2024/03/07 10:53:34;;;;;;;20.60;11.10;;;;;;;3.15;78.54;99775.47;105489;1267;107641;-70
2024/03/07 10:56:31;;;;;;;20.10;10.90;;;;;;;3.10;78.52;99780.88;105514;1256;96585;-70
2024/03/07 10:59:11;;;;;;;21.90;11.20;;;;;;;3.06;78.24;99783.09;105844;1257;98107;-72
2024/03/07 11:03:57;;;;;;;21.80;11.50;;;;;;;3.13;78.21;99787.25;103029;1286;652701;-72
2024/03/07 11:06:26;;;;;;;20.40;11.90;;;;;;;3.11;77.81;99785.91;104429;1267;94303;-74
2024/03/07 11:08:54;;;;;;;24.20;12.70;;;;;;;3.05;77.85;99788.41;104597;1281;94326;-72
2024/03/07 11:11:24;;;;;;;19.20;10.30;;;;;;;3.06;77.68;99787.64;104614;1266;107222;-70
2024/03/07 11:13:54;;;;;;;22.90;11.00;;;;;;;3.08;77.92;99786.36;105138;1264;95718;-72
2024/03/07 11:16:23;;;;;;;18.60;10.80;;;;;;;3.07;77.53;99788.31;104847;1257;571531;-69
2024/03/07 11:19:22;;;;;;;19.40;11.50;;;;;;;3.07;77.47;99791.65;105145;1260;94260;-71
2024/03/07 11:21:50;;;;;;;20.10;11.20;;;;;;;3.13;77.82;99785.34;105123;1263;95142;-72
2024/03/07 11:24:30;;;;;;;19.70;11.20;;;;;;;3.18;77.60;99786.06;104984;1273;106808;-71
2024/03/07 11:27:02;;;;;;;23.80;12.00;;;;;;;3.23;77.87;99785.05;105087;1262;95311;-80